createdAt,value
2022-09-07T00:02:42.834Z,18.04
2022-09-07T00:07:44.542Z,18.02
2022-09-07T00:12:46.082Z,17.97
2022-09-07T00:17:47.547Z,18.28
2022-09-07T00:22:49.244Z,18.01
2022-09-07T00:27:50.686Z,18.21
2022-09-07T00:32:52.150Z,18.36
2022-09-07T00:37:53.655Z,18.48
2022-09-07T00:42:55.198Z,18.48
2022-09-07T00:53:50.668Z,18.35
2022-09-07T00:58:52.791Z,18.39
2022-09-07T01:03:57.554Z,18.41
2022-09-07T01:09:09.453Z,18.35
2022-09-07T01:14:15.159Z,18.42
2022-09-07T01:19:54.415Z,18.13
2022-09-07T01:25:06.004Z,18.22
2022-09-07T01:30:16.147Z,18.02
2022-09-07T01:35:28.328Z,18.03
2022-09-07T01:40:35.751Z,18.06
2022-09-07T01:45:40.804Z,18.04
2022-09-07T01:50:56.427Z,17.80
2022-09-07T01:56:03.811Z,17.85
2022-09-07T02:01:13.353Z,17.95
2022-09-07T02:06:20.863Z,17.81
2022-09-07T02:11:40.648Z,17.81
2022-09-07T02:16:52.635Z,17.71
2022-09-07T02:22:00.556Z,17.70
2022-09-07T02:27:07.637Z,17.63
2022-09-07T02:32:09.396Z,17.63
2022-09-07T02:37:13.751Z,17.65
2022-09-07T02:42:15.289Z,17.80
2022-09-07T02:47:35.410Z,17.64
2022-09-07T02:52:39.701Z,17.73
2022-09-07T02:58:00.959Z,17.59
2022-09-07T03:03:33.559Z,17.57
2022-09-07T03:08:40.411Z,17.40
2022-09-07T03:13:41.974Z,17.64
2022-09-07T03:18:44.193Z,17.62
2022-09-07T03:23:49.923Z,17.64
2022-09-07T03:28:53.252Z,17.71
2022-09-07T03:33:54.991Z,17.47
2022-09-07T03:38:58.076Z,17.46
2022-09-07T03:44:07.111Z,17.20
2022-09-07T03:49:08.575Z,17.29
2022-09-07T03:54:10.147Z,17.39
2022-09-07T03:59:11.619Z,17.30
2022-09-07T04:04:13.703Z,17.45
2022-09-07T04:09:15.250Z,17.29
2022-09-07T04:14:16.937Z,17.11
2022-09-07T04:19:18.706Z,17.05
2022-09-07T04:24:20.229Z,16.92
2022-09-07T04:29:21.697Z,17.00
2022-09-07T04:34:23.232Z,16.87
2022-09-07T04:39:24.842Z,16.77
2022-09-07T04:44:26.331Z,16.95
2022-09-07T04:49:27.845Z,16.86
2022-09-07T04:54:29.499Z,16.71
2022-09-07T04:59:30.985Z,16.78
2022-09-07T05:04:35.414Z,16.58
2022-09-07T05:09:36.894Z,16.61
2022-09-07T05:14:44.827Z,16.63
2022-09-07T05:19:48.208Z,16.53
2022-09-07T05:24:50.068Z,16.57
2022-09-07T05:30:07.172Z,16.72
2022-09-07T05:35:09.429Z,16.86
2022-09-07T05:40:11.421Z,18.29
2022-09-07T05:45:13.162Z,18.08
2022-09-07T05:50:15.631Z,17.90
2022-09-07T05:55:29.419Z,20.18
2022-09-07T06:00:31.726Z,19.40
2022-09-07T06:05:33.178Z,18.81
2022-09-07T06:15:44.481Z,25.44
2022-09-07T06:20:46.137Z,23.29
2022-09-07T06:25:49.497Z,21.99
2022-09-07T06:30:51.041Z,19.93
2022-09-07T06:36:00.453Z,26.25
2022-09-07T06:51:46.917Z,23.71
2022-09-07T06:56:48.395Z,28.90
2022-09-07T07:01:49.964Z,27.62
2022-09-07T07:06:51.554Z,28.94
2022-09-07T07:11:53.124Z,30.55
2022-09-07T07:16:54.738Z,33.22
2022-09-07T07:27:17.793Z,34.73
2022-09-07T07:32:19.313Z,33.63
2022-09-07T07:37:22.792Z,30.06
2022-09-07T07:42:27.471Z,28.18
2022-09-07T07:47:28.931Z,28.02
2022-09-07T07:52:50.497Z,33.09
2022-09-07T07:57:52.268Z,30.43
2022-09-07T08:02:53.799Z,33.49
2022-09-07T08:07:55.350Z,33.10
2022-09-07T08:12:57.101Z,30.74
2022-09-07T08:17:58.846Z,27.82
2022-09-07T08:23:00.301Z,25.68
2022-09-07T08:28:02.863Z,25.35
2022-09-07T08:33:04.419Z,25.70
2022-09-07T08:38:06.281Z,25.14
2022-09-07T08:43:18.147Z,25.93
2022-09-07T08:48:29.481Z,25.06
2022-09-07T08:53:31.865Z,25.66
2022-09-07T08:58:54.545Z,25.93
2022-09-07T09:09:20.365Z,26.07
2022-09-07T09:14:27.934Z,26.27
2022-09-07T09:19:53.282Z,25.62
2022-09-07T09:25:16.638Z,25.70
2022-09-07T09:30:20.809Z,27.08
2022-09-07T09:35:35.792Z,26.21
2022-09-07T09:40:37.471Z,26.03
2022-09-07T09:56:39.881Z,25.50
2022-09-07T10:07:22.698Z,25.87
2022-09-07T10:12:33.183Z,26.28
2022-09-07T10:17:42.528Z,26.11
2022-09-07T10:22:50.863Z,25.48
2022-09-07T10:28:08.174Z,25.82
2022-09-07T10:33:24.542Z,25.40
2022-09-07T10:38:34.149Z,25.70
2022-09-07T10:43:47.794Z,25.35
2022-09-07T10:49:11.313Z,24.85
2022-09-07T10:54:32.235Z,25.42
2022-09-07T11:00:10.103Z,25.55
2022-09-07T11:05:31.061Z,25.45
2022-09-07T11:11:08.859Z,25.60
2022-09-07T11:16:50.630Z,25.10
2022-09-07T11:21:57.993Z,25.82
2022-09-07T11:27:21.386Z,25.91
2022-09-07T11:32:26.716Z,26.02
2022-09-07T11:37:42.078Z,25.77
2022-09-07T11:42:55.771Z,25.77
2022-09-07T11:53:56.490Z,25.27
2022-09-07T11:59:16.159Z,25.25
2022-09-07T12:04:35.243Z,25.50
2022-09-07T12:09:44.437Z,25.53
2022-09-07T12:15:05.825Z,25.69
2022-09-07T12:20:15.503Z,25.56
2022-09-07T12:25:18.523Z,25.61
2022-09-07T12:30:19.905Z,25.45
2022-09-07T12:35:30.425Z,25.26
2022-09-07T12:40:31.806Z,25.15
2022-09-07T12:45:36.233Z,25.36
2022-09-07T12:50:57.013Z,25.40
2022-09-07T13:01:29.733Z,25.27
2022-09-07T13:07:06.083Z,25.13
2022-09-07T13:17:56.802Z,25.31
2022-09-07T13:23:19.490Z,25.07
2022-09-07T13:28:41.384Z,25.21
2022-09-07T13:33:46.310Z,25.19
2022-09-07T13:38:50.425Z,25.05
2022-09-07T13:43:58.421Z,24.86
2022-09-07T13:49:14.455Z,25.16
2022-09-07T13:54:41.960Z,25.44
2022-09-07T13:59:44.122Z,25.48
2022-09-07T14:04:50.143Z,25.47
2022-09-07T14:15:46.724Z,25.57
2022-09-07T14:20:51.341Z,25.63
2022-09-07T14:26:16.605Z,25.66
2022-09-07T14:31:21.018Z,25.66
2022-09-07T14:36:43.934Z,25.46
2022-09-07T14:41:47.059Z,25.53
2022-09-07T14:46:53.088Z,25.12
2022-09-07T14:51:56.983Z,24.85
2022-09-07T14:57:00.556Z,24.88
2022-09-07T15:02:20.353Z,25.01
2022-09-07T15:13:24.163Z,25.02
2022-09-07T15:18:47.175Z,24.99
2022-09-07T15:23:50.479Z,24.96
2022-09-07T15:34:16.146Z,24.66
2022-09-07T15:39:26.084Z,24.67
2022-09-07T15:44:28.622Z,24.36
2022-09-07T15:49:30.126Z,24.24
2022-09-07T15:54:35.239Z,24.24
2022-09-07T15:59:38.443Z,24.29
2022-09-07T16:04:39.943Z,24.31
2022-09-07T16:09:41.468Z,24.31
2022-09-07T16:14:42.898Z,24.12
2022-09-07T16:19:44.315Z,23.98
2022-09-07T16:24:45.809Z,23.79
2022-09-07T16:29:47.769Z,23.56
2022-09-07T16:34:49.197Z,23.39
2022-09-07T16:39:50.655Z,23.22
2022-09-07T16:44:52.416Z,23.10
2022-09-07T16:49:54.551Z,23.07
2022-09-07T16:54:55.918Z,22.99
2022-09-07T16:59:57.485Z,22.87
2022-09-07T17:04:58.870Z,22.77
2022-09-07T17:10:00.336Z,22.72
2022-09-07T17:15:01.701Z,22.74
2022-09-07T17:20:03.354Z,22.69
2022-09-07T17:25:05.168Z,22.69
2022-09-07T17:30:07.073Z,22.46
2022-09-07T17:35:08.935Z,22.39
2022-09-07T17:40:10.783Z,22.23
2022-09-07T17:45:12.310Z,22.10
2022-09-07T17:50:13.762Z,21.89
2022-09-07T17:55:15.186Z,21.82
2022-09-07T18:00:16.698Z,21.79
2022-09-07T18:05:18.380Z,21.57
2022-09-07T18:10:19.831Z,21.46
2022-09-07T18:15:21.571Z,21.19
2022-09-07T18:20:22.973Z,21.20
2022-09-07T18:25:24.389Z,21.12
2022-09-07T18:30:26.432Z,20.75
2022-09-07T18:35:27.803Z,20.62
2022-09-07T18:40:29.247Z,20.49
2022-09-07T18:45:30.725Z,20.34
2022-09-07T18:50:32.119Z,20.24
2022-09-07T18:55:33.719Z,20.16
2022-09-07T19:00:35.216Z,20.00
2022-09-07T19:05:53.389Z,19.85
2022-09-07T19:10:54.997Z,19.77
2022-09-07T19:16:03.857Z,19.30
2022-09-07T19:21:07.771Z,19.62
2022-09-07T19:26:10.560Z,19.58
2022-09-07T19:31:12.021Z,19.19
2022-09-07T19:36:13.796Z,19.28
2022-09-07T19:41:15.751Z,19.26
2022-09-07T19:46:22.714Z,19.24
2022-09-07T19:51:26.190Z,19.20
2022-09-07T19:56:27.578Z,19.16
2022-09-07T20:01:29.078Z,18.95
2022-09-07T20:06:32.147Z,18.89
2022-09-07T20:11:33.968Z,19.04
2022-09-07T20:16:35.921Z,18.86
2022-09-07T20:21:37.444Z,18.66
2022-09-07T20:26:39.124Z,18.77
2022-09-07T20:31:40.729Z,18.90
2022-09-07T20:36:42.256Z,18.64
2022-09-07T20:41:43.656Z,18.64
2022-09-07T20:46:45.252Z,18.41
2022-09-07T20:51:46.682Z,18.01
2022-09-07T20:56:48.073Z,18.36
2022-09-07T21:01:49.567Z,18.22
2022-09-07T21:06:51.047Z,18.19
2022-09-07T21:11:56.767Z,18.03
2022-09-07T21:16:58.479Z,18.02
2022-09-07T21:21:59.842Z,17.72
2022-09-07T21:27:01.231Z,17.87
2022-09-07T21:32:02.906Z,17.90
2022-09-07T21:37:04.362Z,17.63
2022-09-07T21:42:05.926Z,17.75
2022-09-07T21:47:07.495Z,17.61
2022-09-07T21:52:08.967Z,17.54
2022-09-07T21:57:10.951Z,17.28
2022-09-07T22:02:12.372Z,17.05
2022-09-07T22:07:13.880Z,17.14
2022-09-07T22:12:15.382Z,17.20
2022-09-07T22:17:16.814Z,17.05
2022-09-07T22:22:18.384Z,17.05
2022-09-07T22:27:19.790Z,17.13
2022-09-07T22:32:21.203Z,17.20
2022-09-07T22:37:22.685Z,17.06
2022-09-07T22:42:24.087Z,17.13
2022-09-07T22:47:26.596Z,16.88
2022-09-07T22:52:27.998Z,16.85
2022-09-07T22:57:29.411Z,16.78
2022-09-07T23:02:30.861Z,16.73
2022-09-07T23:07:32.230Z,16.73
2022-09-07T23:12:33.719Z,16.76
2022-09-07T23:17:35.184Z,16.79
2022-09-07T23:22:36.774Z,16.61
2022-09-07T23:27:38.382Z,16.63
2022-09-07T23:32:39.819Z,16.65
2022-09-07T23:37:41.258Z,16.63
2022-09-07T23:42:42.711Z,16.84
2022-09-07T23:47:44.175Z,16.62
2022-09-07T23:52:45.819Z,16.42
2022-09-07T23:57:47.345Z,16.69
